createdAt,value
2019-04-07T00:00:55.358Z,10.00
2019-04-07T00:03:27.793Z,9.37
2019-04-07T00:05:59.783Z,9.33
2019-04-07T00:08:32.929Z,10.00
2019-04-07T00:11:04.736Z,10.10
2019-04-07T00:13:36.535Z,10.10
2019-04-07T00:16:08.479Z,10.43
2019-04-07T00:18:40.146Z,11.33
2019-04-07T00:21:12.493Z,10.93
2019-04-07T00:23:44.297Z,11.00
2019-04-07T00:26:16.018Z,12.23
2019-04-07T00:28:47.723Z,11.80
2019-04-07T00:31:19.480Z,11.87
2019-04-07T00:33:51.637Z,11.67
2019-04-07T00:36:23.600Z,11.73
2019-04-07T00:38:55.292Z,12.93
2019-04-07T00:41:27.525Z,12.23
2019-04-07T00:43:59.456Z,12.33
2019-04-07T00:46:32.248Z,12.17
2019-04-07T00:49:04.042Z,12.87
2019-04-07T00:51:36.026Z,12.37
2019-04-07T00:54:08.388Z,12.77
2019-04-07T00:56:40.152Z,12.93
2019-04-07T00:59:11.838Z,12.60
2019-04-07T01:01:43.584Z,11.30
2019-04-07T01:04:15.341Z,12.30
2019-04-07T01:06:47.323Z,12.00
2019-04-07T01:09:20.020Z,11.90
2019-04-07T01:11:52.373Z,12.03
2019-04-07T01:14:25.605Z,12.07
2019-04-07T01:16:58.309Z,12.33
2019-04-07T01:19:30.035Z,12.83
2019-04-07T01:22:02.369Z,12.33
2019-04-07T01:24:34.160Z,12.77
2019-04-07T01:27:05.839Z,13.20
2019-04-07T01:29:37.238Z,13.50
2019-04-07T01:32:08.768Z,12.90
2019-04-07T01:34:40.461Z,12.97
2019-04-07T01:37:12.174Z,12.33
2019-04-07T01:39:43.885Z,14.13
2019-04-07T01:42:37.592Z,12.47
2019-04-07T01:45:29.116Z,11.93
2019-04-07T01:48:17.749Z,12.67
2019-04-07T01:51:06.720Z,12.20
2019-04-07T01:54:00.181Z,12.00
2019-04-07T01:56:46.459Z,12.03
2019-04-07T01:59:42.468Z,12.23
2019-04-07T02:02:33.320Z,12.37
2019-04-07T02:05:15.588Z,12.13
2019-04-07T02:08:05.473Z,12.13
2019-04-07T02:10:51.619Z,11.87
2019-04-07T02:13:57.347Z,11.60
2019-04-07T02:16:45.461Z,12.43
2019-04-07T02:19:34.656Z,12.00
2019-04-07T02:22:23.919Z,12.47
2019-04-07T02:25:15.359Z,12.27
2019-04-07T02:28:03.411Z,12.87
2019-04-07T02:30:58.972Z,12.97
2019-04-07T02:33:52.593Z,12.23
2019-04-07T02:36:56.059Z,12.47
2019-04-07T02:40:03.337Z,12.23
2019-04-07T02:43:01.615Z,12.30
2019-04-07T02:45:56.474Z,12.60
2019-04-07T02:48:47.115Z,12.40
2019-04-07T02:51:52.829Z,12.27
2019-04-07T02:54:44.465Z,12.63
2019-04-07T02:57:34.029Z,12.60
2019-04-07T03:00:31.668Z,13.13
2019-04-07T03:03:25.057Z,13.20
2019-04-07T03:06:37.455Z,13.30
2019-04-07T03:09:15.387Z,12.73
2019-04-07T03:12:00.334Z,12.00
2019-04-07T03:14:39.971Z,12.40
2019-04-07T03:17:26.145Z,13.00
2019-04-07T03:20:32.834Z,12.50
2019-04-07T03:23:22.661Z,12.77
2019-04-07T03:26:02.902Z,12.27
2019-04-07T03:28:49.371Z,11.77
2019-04-07T03:31:59.160Z,12.83
2019-04-07T03:34:44.753Z,13.63
2019-04-07T03:38:04.554Z,12.97
2019-04-07T03:41:05.307Z,12.33
2019-04-07T03:44:06.114Z,13.20
2019-04-07T03:46:45.696Z,13.10
2019-04-07T03:50:00.150Z,13.50
2019-04-07T03:52:54.375Z,13.30
2019-04-07T03:55:44.024Z,12.97
2019-04-07T03:58:32.881Z,13.63
2019-04-07T04:01:35.500Z,12.57
2019-04-07T04:04:29.868Z,12.97
2019-04-07T04:07:28.451Z,12.70
2019-04-07T04:09:55.927Z,12.40
2019-04-07T04:12:47.269Z,12.77
2019-04-07T04:15:22.405Z,13.33
2019-04-07T04:17:53.945Z,12.77
2019-04-07T04:20:25.304Z,12.23
2019-04-07T04:22:57.199Z,12.43
2019-04-07T04:25:30.508Z,12.10
2019-04-07T04:28:02.660Z,13.10
2019-04-07T04:30:34.128Z,11.70
2019-04-07T04:33:06.264Z,11.73
2019-04-07T04:35:38.793Z,12.30
2019-04-07T04:38:10.453Z,12.13
2019-04-07T04:40:42.675Z,12.23
2019-04-07T04:43:14.204Z,11.93
2019-04-07T04:45:46.169Z,12.27
2019-04-07T04:48:17.699Z,12.03
2019-04-07T04:50:49.282Z,11.47
2019-04-07T04:53:21.473Z,12.10
2019-04-07T04:55:53.570Z,12.17
2019-04-07T04:58:25.832Z,12.77
2019-04-07T05:00:57.797Z,12.47
2019-04-07T05:03:29.273Z,12.97
2019-04-07T05:06:01.409Z,12.07
2019-04-07T05:08:32.970Z,11.87
2019-04-07T05:11:04.391Z,12.23
2019-04-07T05:13:35.840Z,11.47
2019-04-07T05:16:07.275Z,11.93
2019-04-07T05:18:38.645Z,11.77
2019-04-07T05:21:10.544Z,12.23
2019-04-07T05:23:42.122Z,12.10
2019-04-07T05:26:13.593Z,12.20
2019-04-07T05:28:45.075Z,12.53
2019-04-07T05:31:16.599Z,12.63
2019-04-07T05:33:48.004Z,12.70
2019-04-07T05:36:19.476Z,13.20
2019-04-07T05:38:51.089Z,12.27
2019-04-07T05:41:22.997Z,12.63
2019-04-07T05:43:54.559Z,12.10
2019-04-07T05:46:28.033Z,11.83
2019-04-07T05:48:58.927Z,12.63
2019-04-07T05:51:31.371Z,11.13
2019-04-07T05:54:03.556Z,12.57
2019-04-07T05:56:35.733Z,11.97
2019-04-07T05:59:09.920Z,11.87
2019-04-07T06:01:41.350Z,11.50
2019-04-07T06:04:17.518Z,11.70
2019-04-07T06:06:46.313Z,11.70
2019-04-07T06:09:18.913Z,11.67
2019-04-07T06:11:51.030Z,10.63
2019-04-07T06:14:22.681Z,11.47
2019-04-07T06:16:55.485Z,11.37
2019-04-07T06:19:27.367Z,12.07
2019-04-07T06:21:59.138Z,11.30
2019-04-07T06:24:33.329Z,11.80
2019-04-07T06:27:03.591Z,11.30
2019-04-07T06:29:35.525Z,11.53
2019-04-07T06:32:09.846Z,11.23
2019-04-07T06:34:43.339Z,11.17
2019-04-07T06:37:14.531Z,10.83
2019-04-07T06:39:58.064Z,10.83
2019-04-07T06:42:32.423Z,10.77
2019-04-07T06:45:02.823Z,11.33
2019-04-07T06:47:53.517Z,10.43
2019-04-07T06:50:48.601Z,10.60
2019-04-07T06:53:32.727Z,11.10
2019-04-07T06:56:10.185Z,10.50
2019-04-07T06:59:00.370Z,10.90
2019-04-07T07:02:09.609Z,10.50
2019-04-07T07:05:13.610Z,9.90
2019-04-07T07:08:02.513Z,9.40
2019-04-07T07:11:00.942Z,9.50
2019-04-07T07:13:49.919Z,9.43
2019-04-07T07:16:35.007Z,9.17
2019-04-07T07:19:34.708Z,8.67
2019-04-07T07:22:16.117Z,8.13
2019-04-07T07:24:47.633Z,7.90
2019-04-07T07:27:20.594Z,6.80
2019-04-07T07:29:53.739Z,7.50
2019-04-07T07:32:25.919Z,7.00
2019-04-07T07:34:57.588Z,6.83
2019-04-07T07:37:29.053Z,6.90
2019-04-07T07:40:02.112Z,7.13
2019-04-07T07:42:33.562Z,6.10
2019-04-07T07:45:08.273Z,5.80
2019-04-07T07:47:38.455Z,4.87
2019-04-07T07:52:38.722Z,3.90
2019-04-07T07:55:10.988Z,3.80
2019-04-07T07:57:56.800Z,3.40
2019-04-07T08:00:27.137Z,3.73
2019-04-07T08:02:59.280Z,3.50
2019-04-07T08:05:33.378Z,3.27
2019-04-07T08:08:04.781Z,3.03
2019-04-07T08:10:36.351Z,3.03
2019-04-07T08:13:08.843Z,2.60
2019-04-07T08:15:40.473Z,2.50
2019-04-07T08:18:12.436Z,2.30
2019-04-07T08:20:45.162Z,2.33
2019-04-07T08:23:17.576Z,2.50
2019-04-07T08:25:48.975Z,2.50
2019-04-07T08:28:21.699Z,2.47
2019-04-07T08:30:53.209Z,2.50
2019-04-07T08:33:24.861Z,2.50
2019-04-07T08:35:56.340Z,2.57
2019-04-07T08:38:28.374Z,2.07
2019-04-07T08:40:59.901Z,2.20
2019-04-07T08:43:31.977Z,2.17
2019-04-07T08:46:04.743Z,2.20
2019-04-07T08:48:37.886Z,1.97
2019-04-07T08:51:10.059Z,1.90
2019-04-07T08:53:44.136Z,2.00
2019-04-07T08:56:16.354Z,1.80
2019-04-07T08:58:47.854Z,1.80
2019-04-07T09:01:21.143Z,1.90
2019-04-07T09:03:54.461Z,1.77
2019-04-07T09:06:28.473Z,1.43
2019-04-07T09:08:59.127Z,2.10
2019-04-07T09:11:32.100Z,1.97
2019-04-07T09:14:06.042Z,1.70
2019-04-07T09:16:56.178Z,1.80
2019-04-07T09:19:45.769Z,1.57
2019-04-07T09:22:36.417Z,1.70
2019-04-07T09:25:41.885Z,1.93
2019-04-07T09:28:31.618Z,2.03
2019-04-07T09:31:09.503Z,2.20
2019-04-07T09:34:01.406Z,2.20
2019-04-07T09:36:51.992Z,2.90
2019-04-07T09:39:56.285Z,2.80
2019-04-07T09:42:36.373Z,3.00
2019-04-07T09:45:38.570Z,2.63
2019-04-07T09:48:22.954Z,2.87
2019-04-07T09:51:06.943Z,2.90
2019-04-07T09:53:55.427Z,3.40
2019-04-07T09:56:38.324Z,3.20
2019-04-07T09:59:27.325Z,3.30
2019-04-07T10:02:24.006Z,3.33
2019-04-07T10:05:13.371Z,3.60
2019-04-07T10:08:04.336Z,3.50
2019-04-07T10:11:00.607Z,3.60
2019-04-07T10:13:56.556Z,3.70
2019-04-07T10:16:37.696Z,3.93
2019-04-07T10:19:26.941Z,4.27
2019-04-07T10:22:21.169Z,3.93
2019-04-07T10:25:04.545Z,3.87
2019-04-07T10:27:54.525Z,3.80
2019-04-07T10:30:44.089Z,3.70
2019-04-07T10:33:39.039Z,3.20
2019-04-07T10:36:29.792Z,3.10
2019-04-07T10:39:10.765Z,2.80
2019-04-07T10:42:04.674Z,2.37
2019-04-07T10:44:50.550Z,2.60
2019-04-07T10:47:29.376Z,2.73
2019-04-07T10:50:13.005Z,2.77
2019-04-07T10:53:09.634Z,3.13
2019-04-07T10:55:56.331Z,2.90
2019-04-07T10:58:39.251Z,3.20
2019-04-07T11:01:38.589Z,3.00
2019-04-07T11:04:29.419Z,2.90
2019-04-07T11:07:18.760Z,2.80
2019-04-07T11:10:32.594Z,2.47
2019-04-07T11:13:03.173Z,2.83
2019-04-07T11:16:00.668Z,2.80
2019-04-07T11:19:00.157Z,2.50
2019-04-07T11:21:56.750Z,2.10
2019-04-07T11:24:53.705Z,2.40
2019-04-07T11:27:47.228Z,2.30
2019-04-07T11:30:29.492Z,2.50
2019-04-07T11:33:07.959Z,2.27
2019-04-07T11:35:45.600Z,2.40
2019-04-07T11:38:39.322Z,2.70
2019-04-07T11:41:39.241Z,2.70
2019-04-07T11:44:38.888Z,2.80
2019-04-07T11:47:25.301Z,2.80
2019-04-07T11:50:15.259Z,2.80
2019-04-07T11:52:58.402Z,2.90
2019-04-07T11:55:44.317Z,2.87
2019-04-07T11:58:35.852Z,2.80
2019-04-07T12:01:32.746Z,2.70
2019-04-07T12:04:26.297Z,2.47
2019-04-07T12:07:14.427Z,2.00
2019-04-07T12:10:05.057Z,1.90
2019-04-07T12:12:55.002Z,2.07
2019-04-07T12:15:50.911Z,1.57
2019-04-07T12:18:38.697Z,1.80
2019-04-07T12:21:21.338Z,1.93
2019-04-07T12:24:19.388Z,2.10
2019-04-07T12:27:01.064Z,1.90
2019-04-07T12:30:00.183Z,1.43
2019-04-07T12:32:56.506Z,1.30
2019-04-07T12:35:39.085Z,1.43
2019-04-07T12:38:43.223Z,1.40
2019-04-07T12:41:42.573Z,1.50
2019-04-07T12:44:20.152Z,1.63
2019-04-07T12:47:17.016Z,1.50
2019-04-07T12:50:16.642Z,1.77
2019-04-07T12:53:15.508Z,1.60
2019-04-07T12:56:10.066Z,1.90
2019-04-07T12:58:50.618Z,1.80
2019-04-07T13:01:56.441Z,1.90
2019-04-07T13:04:42.845Z,2.20
2019-04-07T13:07:48.410Z,2.40
2019-04-07T13:10:42.957Z,2.20
2019-04-07T13:13:33.748Z,2.20
2019-04-07T13:16:28.188Z,2.33
2019-04-07T13:19:37.116Z,2.80
2019-04-07T13:22:34.409Z,2.37
2019-04-07T13:25:20.247Z,2.87
2019-04-07T13:28:08.281Z,2.60
2019-04-07T13:30:50.318Z,2.50
2019-04-07T13:33:43.606Z,2.63
2019-04-07T13:36:25.634Z,3.03
2019-04-07T13:39:02.741Z,2.97
2019-04-07T13:41:56.380Z,3.10
2019-04-07T13:44:46.830Z,3.30
2019-04-07T13:47:42.617Z,3.17
2019-04-07T13:50:33.291Z,3.50
2019-04-07T13:53:31.889Z,3.20
2019-04-07T13:56:21.124Z,3.67
2019-04-07T13:59:21.613Z,3.20
2019-04-07T14:02:26.401Z,3.23
2019-04-07T14:08:31.244Z,3.20
2019-04-07T14:11:25.152Z,3.67
2019-04-07T14:14:05.918Z,3.43
2019-04-07T14:17:07.341Z,2.97
2019-04-07T14:20:00.974Z,3.20
2019-04-07T14:22:52.130Z,3.50
2019-04-07T14:25:36.882Z,3.80
2019-04-07T14:28:30.907Z,3.90
2019-04-07T14:31:20.763Z,3.63
2019-04-07T14:34:11.864Z,3.60
2019-04-07T14:37:03.212Z,3.83
2019-04-07T14:39:58.742Z,3.10
2019-04-07T14:42:57.159Z,2.97
2019-04-07T14:45:48.825Z,2.90
2019-04-07T14:48:40.162Z,2.87
2019-04-07T14:51:43.115Z,3.50
2019-04-07T14:54:37.795Z,3.20
2019-04-07T14:57:26.897Z,3.37
2019-04-07T15:00:16.265Z,3.67
2019-04-07T15:02:47.787Z,3.47
2019-04-07T15:05:25.297Z,3.27
2019-04-07T15:08:18.891Z,3.90
2019-04-07T15:10:53.163Z,3.90
2019-04-07T15:13:28.191Z,3.80
2019-04-07T15:16:00.589Z,3.73
2019-04-07T15:18:32.351Z,3.53
2019-04-07T15:21:04.619Z,3.87
2019-04-07T15:23:36.834Z,3.70
2019-04-07T15:26:09.961Z,4.13
2019-04-07T15:28:42.402Z,4.00
2019-04-07T15:31:18.331Z,3.80
2019-04-07T15:33:51.353Z,4.03
2019-04-07T15:36:24.268Z,3.93
2019-04-07T15:38:58.138Z,3.97
2019-04-07T15:41:30.646Z,4.20
2019-04-07T15:44:06.222Z,3.80
2019-04-07T15:46:36.665Z,3.57
2019-04-07T15:49:10.543Z,4.00
2019-04-07T15:51:43.121Z,4.00
2019-04-07T15:54:14.760Z,3.93
2019-04-07T15:56:49.318Z,4.10
2019-04-07T15:59:21.504Z,4.17
2019-04-07T16:01:55.373Z,4.33
2019-04-07T16:04:30.734Z,4.20
2019-04-07T16:07:02.614Z,4.60
2019-04-07T16:09:44.331Z,4.43
2019-04-07T16:12:08.781Z,4.37
2019-04-07T16:14:44.937Z,4.30
2019-04-07T16:17:15.802Z,4.27
2019-04-07T16:19:52.040Z,4.57
2019-04-07T16:22:22.489Z,4.50
2019-04-07T16:24:56.132Z,4.13
2019-04-07T16:27:28.279Z,4.47
2019-04-07T16:30:01.240Z,4.40
2019-04-07T16:32:33.894Z,4.70
2019-04-07T16:35:07.098Z,4.50
2019-04-07T16:37:40.432Z,4.30
2019-04-07T16:40:13.031Z,4.60
2019-04-07T16:43:00.364Z,4.67
2019-04-07T16:45:19.234Z,4.10
2019-04-07T16:47:51.420Z,4.30
2019-04-07T16:50:23.469Z,4.27
2019-04-07T16:52:55.498Z,4.70
2019-04-07T16:55:34.928Z,4.40
2019-04-07T16:58:08.390Z,4.17
2019-04-07T17:00:40.537Z,4.60
2019-04-07T17:03:24.112Z,4.30
2019-04-07T17:05:58.991Z,4.23
2019-04-07T17:08:29.996Z,4.43
2019-04-07T17:11:06.429Z,4.30
2019-04-07T17:13:40.012Z,4.47
2019-04-07T17:16:10.965Z,4.50
2019-04-07T17:18:43.325Z,5.07
2019-04-07T17:21:18.344Z,4.87
2019-04-07T17:23:53.154Z,4.80
2019-04-07T17:26:45.484Z,4.73
2019-04-07T17:29:23.547Z,4.10
2019-04-07T17:31:58.549Z,4.33
2019-04-07T17:34:30.496Z,4.50
2019-04-07T17:37:04.117Z,4.47
2019-04-07T17:39:48.240Z,4.97
2019-04-07T17:42:21.144Z,4.90
2019-04-07T17:45:07.616Z,4.83
2019-04-07T17:48:07.033Z,4.97
2019-04-07T17:50:56.462Z,5.10
2019-04-07T17:53:47.243Z,4.43
2019-04-07T17:56:41.003Z,4.90
2019-04-07T17:59:32.535Z,5.07
2019-04-07T18:02:44.749Z,5.40
2019-04-07T18:05:39.200Z,4.77
2019-04-07T18:08:25.119Z,5.17
2019-04-07T18:11:04.331Z,4.60
2019-04-07T18:13:56.662Z,5.90
2019-04-07T18:16:48.258Z,4.97
2019-04-07T18:19:38.743Z,5.43
2019-04-07T18:22:23.379Z,5.90
2019-04-07T18:25:12.352Z,5.60
2019-04-07T18:28:03.013Z,5.30
2019-04-07T18:30:53.855Z,5.20
2019-04-07T18:33:43.480Z,5.40
2019-04-07T18:36:34.965Z,5.43
2019-04-07T18:39:27.642Z,6.03
2019-04-07T18:42:19.688Z,5.67
2019-04-07T18:45:21.766Z,5.27
2019-04-07T18:48:18.448Z,6.20
2019-04-07T18:51:10.644Z,5.37
2019-04-07T18:54:01.396Z,4.80
2019-04-07T18:56:54.786Z,5.27
2019-04-07T18:59:33.391Z,4.90
2019-04-07T19:02:31.758Z,4.87
2019-04-07T19:05:15.407Z,4.83
2019-04-07T19:08:05.990Z,5.03
2019-04-07T19:11:13.102Z,4.67
2019-04-07T19:14:14.321Z,5.30
2019-04-07T19:16:50.257Z,5.40
2019-04-07T19:19:38.669Z,5.73
2019-04-07T19:22:30.264Z,5.20
2019-04-07T19:25:15.617Z,5.37
2019-04-07T19:28:02.384Z,5.20
2019-04-07T19:30:50.128Z,5.20
2019-04-07T19:33:37.808Z,5.63
2019-04-07T19:36:27.382Z,5.77
2019-04-07T19:39:11.087Z,5.70
2019-04-07T19:41:56.294Z,5.53
2019-04-07T19:44:42.824Z,6.07
2019-04-07T19:47:31.178Z,5.43
2019-04-07T19:50:23.496Z,5.77
2019-04-07T19:53:10.544Z,6.20
2019-04-07T19:55:54.619Z,5.17
2019-04-07T19:58:40.980Z,5.63
2019-04-07T20:01:35.583Z,6.00
2019-04-07T20:04:24.806Z,5.90
2019-04-07T20:07:07.255Z,6.00
2019-04-07T20:10:03.816Z,6.30
2019-04-07T20:12:54.088Z,5.77
2019-04-07T20:15:45.067Z,6.03
2019-04-07T20:18:40.533Z,6.07
2019-04-07T20:21:20.011Z,6.10
2019-04-07T20:24:04.566Z,6.73
2019-04-07T20:27:01.456Z,6.80
2019-04-07T20:29:51.883Z,6.87
2019-04-07T20:32:36.220Z,6.80
2019-04-07T20:35:28.818Z,6.77
2019-04-07T20:38:08.340Z,7.30
2019-04-07T20:41:01.724Z,7.30
2019-04-07T20:43:42.605Z,7.23
2019-04-07T20:46:27.862Z,7.60
2019-04-07T20:49:35.770Z,7.30
2019-04-07T20:52:17.894Z,7.20
2019-04-07T20:55:03.750Z,6.97
2019-04-07T20:57:56.481Z,7.00
2019-04-07T21:01:00.120Z,7.17
2019-04-07T21:03:49.339Z,7.00
2019-04-07T21:06:37.942Z,6.90
2019-04-07T21:09:26.781Z,7.13
2019-04-07T21:12:23.461Z,6.90
2019-04-07T21:15:18.306Z,6.60
2019-04-07T21:17:52.480Z,7.10
2019-04-07T21:20:41.990Z,7.47
2019-04-07T21:23:37.381Z,6.93
2019-04-07T21:26:30.089Z,7.10
2019-04-07T21:29:08.940Z,6.83
2019-04-07T21:32:05.468Z,7.10
2019-04-07T21:35:01.366Z,6.83
2019-04-07T21:37:56.183Z,6.90
2019-04-07T21:40:45.879Z,7.13
2019-04-07T21:43:35.000Z,7.33
2019-04-07T21:46:24.842Z,7.33
2019-04-07T21:49:07.689Z,7.60
2019-04-07T21:51:55.307Z,7.70
2019-04-07T21:54:38.686Z,7.57
2019-04-07T21:57:30.104Z,7.17
2019-04-07T22:00:20.915Z,7.63
2019-04-07T22:03:03.387Z,7.00
2019-04-07T22:05:58.097Z,7.40
2019-04-07T22:08:37.429Z,7.93
2019-04-07T22:11:09.924Z,7.37
2019-04-07T22:13:41.421Z,8.20
2019-04-07T22:16:12.992Z,8.03
2019-04-07T22:18:44.984Z,9.20
2019-04-07T22:21:17.062Z,7.70
2019-04-07T22:23:48.561Z,8.27
2019-04-07T22:26:22.192Z,7.87
2019-04-07T22:28:53.677Z,8.00
2019-04-07T22:31:29.022Z,7.70
2019-04-07T22:34:02.361Z,7.67
2019-04-07T22:36:34.250Z,7.60
2019-04-07T22:39:07.774Z,7.50
2019-04-07T22:41:41.756Z,7.77
2019-04-07T22:44:13.367Z,6.97
2019-04-07T22:46:49.332Z,7.30
2019-04-07T22:49:20.182Z,7.50
2019-04-07T22:51:54.149Z,7.13
2019-04-07T22:54:30.184Z,7.43
2019-04-07T22:56:58.188Z,8.00
2019-04-07T22:59:30.202Z,7.47
2019-04-07T23:02:01.756Z,7.80
2019-04-07T23:04:34.214Z,7.17
2019-04-07T23:07:06.394Z,7.47
2019-04-07T23:09:39.084Z,7.50
2019-04-07T23:12:10.765Z,7.40
2019-04-07T23:14:42.321Z,7.60
2019-04-07T23:17:13.930Z,7.47
2019-04-07T23:19:46.219Z,7.00
2019-04-07T23:22:18.128Z,7.20
2019-04-07T23:24:49.728Z,7.10
2019-04-07T23:27:22.196Z,7.90
2019-04-07T23:29:54.855Z,7.77
2019-04-07T23:32:26.398Z,7.60
2019-04-07T23:34:58.103Z,7.33
2019-04-07T23:37:30.485Z,6.90
2019-04-07T23:40:02.483Z,7.27
2019-04-07T23:42:34.016Z,7.63
2019-04-07T23:45:06.305Z,7.40
2019-04-07T23:47:38.635Z,7.50
2019-04-07T23:50:11.158Z,6.93
2019-04-07T23:52:43.229Z,7.10
2019-04-07T23:55:15.490Z,7.20
2019-04-07T23:57:48.695Z,7.33
